sensor_id;sensor_type;location;lat;lon;timestamp;pressure;altitude;pressure_sealevel;temperature;humidity
11345;BME280;5727;42.600;23.028;2023-03-31T00:00:52;93667.25;;;10.53;64.20
11345;BME280;5727;42.600;23.028;2023-03-31T00:03:22;93659.63;;;10.60;63.83
11345;BME280;5727;42.600;23.028;2023-03-31T00:05:54;93658.09;;;10.59;62.35
11345;BME280;5727;42.600;23.028;2023-03-31T00:08:22;93664.19;;;10.63;63.02
11345;BME280;5727;42.600;23.028;2023-03-31T00:10:48;93654.94;;;10.66;63.18
11345;BME280;5727;42.600;23.028;2023-03-31T00:13:16;93658.09;;;10.71;64.51
11345;BME280;5727;42.600;23.028;2023-03-31T00:15:42;93660.38;;;10.73;64.15
11345;BME280;5727;42.600;23.028;2023-03-31T00:18:10;93652.97;;;10.75;63.33
11345;BME280;5727;42.600;23.028;2023-03-31T00:20:37;93656.47;;;10.79;63.16
11345;BME280;5727;42.600;23.028;2023-03-31T00:23:03;93655.25;;;10.76;63.21
11345;BME280;5727;42.600;23.028;2023-03-31T00:25:38;93654.47;;;10.76;64.24
11345;BME280;5727;42.600;23.028;2023-03-31T00:28:05;93649.81;;;10.81;64.39
11345;BME280;5727;42.600;23.028;2023-03-31T00:30:32;93649.81;;;10.81;64.11
11345;BME280;5727;42.600;23.028;2023-03-31T00:32:59;93650.75;;;10.53;65.68
11345;BME280;5727;42.600;23.028;2023-03-31T00:35:26;93646.28;;;10.53;65.88
11345;BME280;5727;42.600;23.028;2023-03-31T00:37:52;93642.13;;;10.64;66.20
11345;BME280;5727;42.600;23.028;2023-03-31T00:40:22;93636.03;;;10.72;65.98
11345;BME280;5727;42.600;23.028;2023-03-31T00:42:50;93633.31;;;10.69;65.51
11345;BME280;5727;42.600;23.028;2023-03-31T00:45:24;93632.97;;;10.70;65.76
11345;BME280;5727;42.600;23.028;2023-03-31T00:47:55;93629.81;;;10.77;66.17
11345;BME280;5727;42.600;23.028;2023-03-31T00:50:27;93627.97;;;10.77;66.57
11345;BME280;5727;42.600;23.028;2023-03-31T00:52:59;93619.25;;;10.73;64.47
11345;BME280;5727;42.600;23.028;2023-03-31T00:55:29;93622.19;;;10.72;64.64
11345;BME280;5727;42.600;23.028;2023-03-31T00:58:00;93614.53;;;10.67;62.11
11345;BME280;5727;42.600;23.028;2023-03-31T01:00:29;93614.63;;;10.70;63.36
11345;BME280;5727;42.600;23.028;2023-03-31T01:02:58;93616.19;;;10.71;62.82
11345;BME280;5727;42.600;23.028;2023-03-31T01:05:30;93620.13;;;10.77;60.05
11345;BME280;5727;42.600;23.028;2023-03-31T01:07:59;93613.22;;;10.85;60.82
11345;BME280;5727;42.600;23.028;2023-03-31T01:10:28;93625.03;;;10.91;61.21
11345;BME280;5727;42.600;23.028;2023-03-31T01:13:04;93619.22;;;10.97;61.57
11345;BME280;5727;42.600;23.028;2023-03-31T01:15:31;93621.19;;;11.00;62.56
11345;BME280;5727;42.600;23.028;2023-03-31T01:17:58;93622.50;;;10.94;63.01
11345;BME280;5727;42.600;23.028;2023-03-31T01:20:33;93622.06;;;10.80;63.85
11345;BME280;5727;42.600;23.028;2023-03-31T01:23:47;93635.38;;;10.87;65.75
11345;BME280;5727;42.600;23.028;2023-03-31T01:26:39;93635.50;;;10.91;66.68
11345;BME280;5727;42.600;23.028;2023-03-31T01:29:24;93625.47;;;10.93;67.43
11345;BME280;5727;42.600;23.028;2023-03-31T01:38:44;93640.41;;;10.92;68.15
11345;BME280;5727;42.600;23.028;2023-03-31T01:41:29;93650.34;;;10.87;66.32
11345;BME280;5727;42.600;23.028;2023-03-31T01:44:05;93653.53;;;10.92;66.50
11345;BME280;5727;42.600;23.028;2023-03-31T01:46:36;93656.25;;;10.84;65.49
11345;BME280;5727;42.600;23.028;2023-03-31T01:49:14;93654.94;;;10.90;65.65
11345;BME280;5727;42.600;23.028;2023-03-31T01:51:48;93656.91;;;10.81;65.45
11345;BME280;5727;42.600;23.028;2023-03-31T01:54:21;93664.00;;;10.92;67.66
11345;BME280;5727;42.600;23.028;2023-03-31T01:56:54;93661.59;;;10.87;64.05
11345;BME280;5727;42.600;23.028;2023-03-31T01:59:26;93669.78;;;10.86;63.76
11345;BME280;5727;42.600;23.028;2023-03-31T02:01:56;93681.81;;;10.87;64.66
11345;BME280;5727;42.600;23.028;2023-03-31T02:04:27;93684.97;;;10.92;65.20
11345;BME280;5727;42.600;23.028;2023-03-31T02:06:59;93686.59;;;10.97;71.29
11345;BME280;5727;42.600;23.028;2023-03-31T02:09:31;93698.72;;;11.01;69.55
11345;BME280;5727;42.600;23.028;2023-03-31T02:12:03;93697.63;;;10.78;71.06
11345;BME280;5727;42.600;23.028;2023-03-31T02:14:33;93691.75;;;10.81;79.04
11345;BME280;5727;42.600;23.028;2023-03-31T02:17:04;93701.47;;;10.81;84.87
11345;BME280;5727;42.600;23.028;2023-03-31T02:19:35;93700.41;;;10.49;83.91
11345;BME280;5727;42.600;23.028;2023-03-31T02:22:05;93703.69;;;10.46;86.73
11345;BME280;5727;42.600;23.028;2023-03-31T02:24:35;93698.00;;;10.44;88.58
11345;BME280;5727;42.600;23.028;2023-03-31T02:27:08;93700.19;;;10.42;89.50
11345;BME280;5727;42.600;23.028;2023-03-31T02:29:38;93694.50;;;10.40;87.70
11345;BME280;5727;42.600;23.028;2023-03-31T02:32:10;93688.78;;;10.26;86.68
11345;BME280;5727;42.600;23.028;2023-03-31T02:34:40;93689.66;;;10.30;89.81
11345;BME280;5727;42.600;23.028;2023-03-31T02:37:07;93681.19;;;10.33;93.48
11345;BME280;5727;42.600;23.028;2023-03-31T02:39:35;93673.56;;;10.40;98.69
11345;BME280;5727;42.600;23.028;2023-03-31T02:42:05;93669.09;;;10.41;100.00
11345;BME280;5727;42.600;23.028;2023-03-31T02:44:33;93659.16;;;10.46;100.00
11345;BME280;5727;42.600;23.028;2023-03-31T02:47:00;93655.88;;;10.49;100.00
11345;BME280;5727;42.600;23.028;2023-03-31T02:49:28;93659.50;;;10.57;100.00
11345;BME280;5727;42.600;23.028;2023-03-31T02:52:26;93643.22;;;10.51;100.00
11345;BME280;5727;42.600;23.028;2023-03-31T03:01:06;93627.81;;;10.26;100.00
11345;BME280;5727;42.600;23.028;2023-03-31T03:03:42;93618.09;;;9.93;100.00
11345;BME280;5727;42.600;23.028;2023-03-31T03:06:23;93612.50;;;9.83;100.00
11345;BME280;5727;42.600;23.028;2023-03-31T03:09:06;93613.69;;;9.73;100.00
11345;BME280;5727;42.600;23.028;2023-03-31T03:11:41;93601.81;;;9.76;100.00
11345;BME280;5727;42.600;23.028;2023-03-31T03:14:19;93597.69;;;9.87;100.00
11345;BME280;5727;42.600;23.028;2023-03-31T03:16:55;93605.56;;;9.99;100.00
11345;BME280;5727;42.600;23.028;2023-03-31T03:19:24;93602.75;;;10.04;99.81
11345;BME280;5727;42.600;23.028;2023-03-31T03:21:51;93607.31;;;10.07;100.00
11345;BME280;5727;42.600;23.028;2023-03-31T03:24:18;93617.31;;;10.13;100.00
11345;BME280;5727;42.600;23.028;2023-03-31T03:26:47;93618.53;;;9.95;100.00
11345;BME280;5727;42.600;23.028;2023-03-31T03:29:14;93625.38;;;9.88;100.00
11345;BME280;5727;42.600;23.028;2023-03-31T03:31:41;93622.31;;;9.86;100.00
11345;BME280;5727;42.600;23.028;2023-03-31T03:34:09;93608.50;;;9.85;100.00
11345;BME280;5727;42.600;23.028;2023-03-31T03:36:36;93614.13;;;9.87;100.00
11345;BME280;5727;42.600;23.028;2023-03-31T03:39:03;93612.56;;;9.95;100.00
11345;BME280;5727;42.600;23.028;2023-03-31T03:41:30;93606.66;;;9.98;99.53
11345;BME280;5727;42.600;23.028;2023-03-31T03:43:58;93611.69;;;10.03;99.30
11345;BME280;5727;42.600;23.028;2023-03-31T03:46:25;93596.53;;;10.08;100.00
11345;BME280;5727;42.600;23.028;2023-03-31T03:48:52;93606.84;;;10.13;100.00
11345;BME280;5727;42.600;23.028;2023-03-31T03:51:21;93605.38;;;10.04;100.00
11345;BME280;5727;42.600;23.028;2023-03-31T03:53:48;93612.13;;;10.05;100.00
11345;BME280;5727;42.600;23.028;2023-03-31T03:56:15;93611.06;;;10.06;100.00
11345;BME280;5727;42.600;23.028;2023-03-31T03:58:41;93610.38;;;10.09;100.00
11345;BME280;5727;42.600;23.028;2023-03-31T04:01:08;93613.84;;;10.01;100.00
11345;BME280;5727;42.600;23.028;2023-03-31T04:03:35;93616.47;;;9.89;100.00
11345;BME280;5727;42.600;23.028;2023-03-31T04:06:01;93617.09;;;9.86;100.00
11345;BME280;5727;42.600;23.028;2023-03-31T04:08:30;93616.97;;;9.82;100.00
11345;BME280;5727;42.600;23.028;2023-03-31T04:10:56;93616.06;;;9.78;100.00
11345;BME280;5727;42.600;23.028;2023-03-31T04:13:23;93618.34;;;9.68;100.00
11345;BME280;5727;42.600;23.028;2023-03-31T04:15:50;93608.06;;;9.63;100.00
11345;BME280;5727;42.600;23.028;2023-03-31T04:18:17;93618.53;;;9.63;100.00
11345;BME280;5727;42.600;23.028;2023-03-31T04:20:47;93619.28;;;9.63;100.00
11345;BME280;5727;42.600;23.028;2023-03-31T04:23:19;93623.31;;;9.61;100.00
11345;BME280;5727;42.600;23.028;2023-03-31T04:25:49;93626.97;;;9.48;100.00
11345;BME280;5727;42.600;23.028;2023-03-31T04:28:16;93628.78;;;9.47;100.00
11345;BME280;5727;42.600;23.028;2023-03-31T04:30:42;93613.31;;;9.42;100.00
11345;BME280;5727;42.600;23.028;2023-03-31T04:33:09;93611.47;;;9.43;100.00
11345;BME280;5727;42.600;23.028;2023-03-31T04:35:39;93618.22;;;9.44;100.00
11345;BME280;5727;42.600;23.028;2023-03-31T04:38:14;93620.66;;;9.49;100.00
11345;BME280;5727;42.600;23.028;2023-03-31T04:40:43;93621.72;;;9.48;100.00
11345;BME280;5727;42.600;23.028;2023-03-31T04:43:11;93622.63;;;9.52;100.00
11345;BME280;5727;42.600;23.028;2023-03-31T04:45:38;93630.25;;;9.57;100.00
11345;BME280;5727;42.600;23.028;2023-03-31T04:48:05;93636.78;;;9.51;100.00
11345;BME280;5727;42.600;23.028;2023-03-31T04:50:32;93636.97;;;9.46;100.00
11345;BME280;5727;42.600;23.028;2023-03-31T04:53:00;93628.63;;;9.32;100.00
11345;BME280;5727;42.600;23.028;2023-03-31T04:55:27;93623.09;;;9.33;100.00
11345;BME280;5727;42.600;23.028;2023-03-31T04:57:54;93617.59;;;9.47;100.00
11345;BME280;5727;42.600;23.028;2023-03-31T05:00:22;93625.47;;;9.59;100.00
11345;BME280;5727;42.600;23.028;2023-03-31T05:02:49;93617.44;;;9.64;100.00
11345;BME280;5727;42.600;23.028;2023-03-31T05:05:16;93623.38;;;9.73;100.00
11345;BME280;5727;42.600;23.028;2023-03-31T05:07:43;93606.81;;;9.81;100.00
11345;BME280;5727;42.600;23.028;2023-03-31T05:10:10;93602.81;;;9.83;100.00
11345;BME280;5727;42.600;23.028;2023-03-31T05:12:37;93605.44;;;9.95;100.00
11345;BME280;5727;42.600;23.028;2023-03-31T05:15:05;93596.13;;;10.06;100.00
11345;BME280;5727;42.600;23.028;2023-03-31T05:17:34;93595.47;;;10.09;100.00
11345;BME280;5727;42.600;23.028;2023-03-31T05:20:03;93596.53;;;10.08;99.14
11345;BME280;5727;42.600;23.028;2023-03-31T05:22:34;93592.41;;;10.07;96.66
11345;BME280;5727;42.600;23.028;2023-03-31T05:25:01;93591.06;;;10.01;96.08
11345;BME280;5727;42.600;23.028;2023-03-31T05:27:28;93596.25;;;10.10;96.94
11345;BME280;5727;42.600;23.028;2023-03-31T05:29:55;93598.44;;;10.20;94.29
11345;BME280;5727;42.600;23.028;2023-03-31T05:32:22;93597.38;;;10.33;92.03
11345;BME280;5727;42.600;23.028;2023-03-31T05:34:50;93596.63;;;10.45;89.88
11345;BME280;5727;42.600;23.028;2023-03-31T05:37:21;93597.19;;;10.50;90.74
11345;BME280;5727;42.600;23.028;2023-03-31T05:39:48;93593.56;;;10.67;93.30
11345;BME280;5727;42.600;23.028;2023-03-31T05:42:15;93596.63;;;10.81;93.62
11345;BME280;5727;42.600;23.028;2023-03-31T05:44:42;93591.50;;;10.96;91.96
11345;BME280;5727;42.600;23.028;2023-03-31T05:47:08;93591.38;;;10.93;90.34
11345;BME280;5727;42.600;23.028;2023-03-31T05:49:35;93587.75;;;10.97;89.50
11345;BME280;5727;42.600;23.028;2023-03-31T05:52:04;93591.28;;;10.77;90.15
11345;BME280;5727;42.600;23.028;2023-03-31T05:54:31;93590.28;;;10.82;91.15
11345;BME280;5727;42.600;23.028;2023-03-31T05:56:58;93601.00;;;10.89;89.37
11345;BME280;5727;42.600;23.028;2023-03-31T05:59:25;93599.13;;;10.89;87.84
11345;BME280;5727;42.600;23.028;2023-03-31T06:01:54;93599.13;;;10.89;86.41
11345;BME280;5727;42.600;23.028;2023-03-31T06:04:21;93599.13;;;11.01;87.10
11345;BME280;5727;42.600;23.028;2023-03-31T06:06:48;93595.81;;;11.17;88.50
11345;BME280;5727;42.600;23.028;2023-03-31T06:09:17;93602.25;;;11.31;87.81
11345;BME280;5727;42.600;23.028;2023-03-31T06:11:44;93608.44;;;11.39;83.56
11345;BME280;5727;42.600;23.028;2023-03-31T06:14:11;93599.44;;;11.52;84.13
11345;BME280;5727;42.600;23.028;2023-03-31T06:16:38;93600.91;;;11.65;85.88
11345;BME280;5727;42.600;23.028;2023-03-31T06:19:05;93594.63;;;11.81;83.70
11345;BME280;5727;42.600;23.028;2023-03-31T06:21:32;93602.47;;;11.93;82.40
11345;BME280;5727;42.600;23.028;2023-03-31T06:23:59;93602.75;;;12.04;78.76
11345;BME280;5727;42.600;23.028;2023-03-31T06:26:27;93592.44;;;12.11;80.15
11345;BME280;5727;42.600;23.028;2023-03-31T06:28:54;93593.94;;;12.12;80.21
11345;BME280;5727;42.600;23.028;2023-03-31T06:31:22;93586.41;;;12.11;80.54
11345;BME280;5727;42.600;23.028;2023-03-31T06:33:50;93589.38;;;12.09;79.76
11345;BME280;5727;42.600;23.028;2023-03-31T06:36:18;93583.66;;;11.91;78.58
11345;BME280;5727;42.600;23.028;2023-03-31T06:38:45;93590.03;;;11.90;79.50
11345;BME280;5727;42.600;23.028;2023-03-31T06:41:14;93587.31;;;11.87;80.66
11345;BME280;5727;42.600;23.028;2023-03-31T06:43:42;93586.91;;;12.01;79.38
11345;BME280;5727;42.600;23.028;2023-03-31T06:46:09;93588.06;;;11.87;73.43
11345;BME280;5727;42.600;23.028;2023-03-31T06:48:36;93577.91;;;11.86;71.50
11345;BME280;5727;42.600;23.028;2023-03-31T06:51:05;93573.19;;;12.07;71.85
11345;BME280;5727;42.600;23.028;2023-03-31T06:53:32;93575.84;;;12.38;70.26
11345;BME280;5727;42.600;23.028;2023-03-31T06:55:59;93575.16;;;12.72;69.70
11345;BME280;5727;42.600;23.028;2023-03-31T06:58:26;93557.50;;;12.88;69.01
11345;BME280;5727;42.600;23.028;2023-03-31T07:00:54;93558.41;;;13.12;72.77
11345;BME280;5727;42.600;23.028;2023-03-31T07:03:21;93563.59;;;13.27;68.95
11345;BME280;5727;42.600;23.028;2023-03-31T07:05:50;93556.69;;;13.19;67.56
11345;BME280;5727;42.600;23.028;2023-03-31T07:08:17;93560.41;;;13.18;65.89
11345;BME280;5727;42.600;23.028;2023-03-31T07:10:44;93556.34;;;13.40;67.21
11345;BME280;5727;42.600;23.028;2023-03-31T07:13:13;93556.69;;;13.57;68.15
11345;BME280;5727;42.600;23.028;2023-03-31T07:15:40;93553.56;;;13.71;67.32
11345;BME280;5727;42.600;23.028;2023-03-31T07:18:08;93545.72;;;13.74;67.26
11345;BME280;5727;42.600;23.028;2023-03-31T07:20:35;93547.31;;;13.79;66.94
11345;BME280;5727;42.600;23.028;2023-03-31T07:23:03;93554.41;;;13.56;65.05
11345;BME280;5727;42.600;23.028;2023-03-31T07:25:31;93549.25;;;13.06;61.33
11345;BME280;5727;42.600;23.028;2023-03-31T07:27:57;93533.25;;;13.14;61.00
11345;BME280;5727;42.600;23.028;2023-03-31T07:30:24;93534.03;;;13.15;62.69
11345;BME280;5727;42.600;23.028;2023-03-31T07:32:51;93518.88;;;13.27;62.21
11345;BME280;5727;42.600;23.028;2023-03-31T07:35:20;93504.19;;;13.45;65.01
11345;BME280;5727;42.600;23.028;2023-03-31T07:37:48;93520.94;;;13.56;62.64
11345;BME280;5727;42.600;23.028;2023-03-31T07:40:17;93512.28;;;13.56;63.62
11345;BME280;5727;42.600;23.028;2023-03-31T07:42:44;93515.31;;;13.20;62.11
11345;BME280;5727;42.600;23.028;2023-03-31T07:45:14;93524.19;;;13.12;63.21
11345;BME280;5727;42.600;23.028;2023-03-31T07:47:41;93532.34;;;13.07;63.75
11345;BME280;5727;42.600;23.028;2023-03-31T07:50:11;93537.53;;;13.03;63.52
11345;BME280;5727;42.600;23.028;2023-03-31T07:52:39;93524.28;;;13.00;63.66
11345;BME280;5727;42.600;23.028;2023-03-31T07:55:07;93526.00;;;13.08;63.53
11345;BME280;5727;42.600;23.028;2023-03-31T07:57:34;93529.88;;;13.14;64.09
11345;BME280;5727;42.600;23.028;2023-03-31T08:00:02;93533.06;;;13.42;63.43
11345;BME280;5727;42.600;23.028;2023-03-31T08:02:32;93524.59;;;13.71;60.69
11345;BME280;5727;42.600;23.028;2023-03-31T08:04:59;93527.47;;;13.85;60.24
11345;BME280;5727;42.600;23.028;2023-03-31T08:07:25;93525.81;;;13.96;60.30
11345;BME280;5727;42.600;23.028;2023-03-31T08:09:56;93519.25;;;14.09;59.76
11345;BME280;5727;42.600;23.028;2023-03-31T08:12:23;93502.16;;;14.22;59.18
11345;BME280;5727;42.600;23.028;2023-03-31T08:14:50;93504.25;;;14.58;57.35
11345;BME280;5727;42.600;23.028;2023-03-31T08:17:16;93498.88;;;14.78;55.48
11345;BME280;5727;42.600;23.028;2023-03-31T08:19:43;93504.88;;;14.75;55.23
11345;BME280;5727;42.600;23.028;2023-03-31T08:22:10;93506.59;;;14.18;55.38
11345;BME280;5727;42.600;23.028;2023-03-31T08:24:36;93502.78;;;13.70;57.42
11345;BME280;5727;42.600;23.028;2023-03-31T08:27:04;93495.13;;;13.62;58.85
11345;BME280;5727;42.600;23.028;2023-03-31T08:29:31;93489.72;;;13.36;60.05
11345;BME280;5727;42.600;23.028;2023-03-31T08:31:58;93488.75;;;13.44;60.38
11345;BME280;5727;42.600;23.028;2023-03-31T08:34:25;93487.47;;;13.57;60.14
11345;BME280;5727;42.600;23.028;2023-03-31T08:36:51;93482.19;;;13.99;60.60
11345;BME280;5727;42.600;23.028;2023-03-31T08:39:18;93483.47;;;14.53;59.29
11345;BME280;5727;42.600;23.028;2023-03-31T08:41:53;93475.41;;;14.99;59.01
11345;BME280;5727;42.600;23.028;2023-03-31T08:44:27;93480.41;;;14.78;54.67
11345;BME280;5727;42.600;23.028;2023-03-31T08:46:56;93475.34;;;14.92;58.29
11345;BME280;5727;42.600;23.028;2023-03-31T08:49:24;93474.00;;;15.05;57.41
11345;BME280;5727;42.600;23.028;2023-03-31T08:51:54;93462.78;;;15.11;55.25
11345;BME280;5727;42.600;23.028;2023-03-31T08:54:30;93461.53;;;15.35;55.17
11345;BME280;5727;42.600;23.028;2023-03-31T08:56:57;93454.22;;;14.92;52.37
11345;BME280;5727;42.600;23.028;2023-03-31T08:59:29;93457.81;;;14.77;50.12
11345;BME280;5727;42.600;23.028;2023-03-31T09:02:01;93448.94;;;14.62;51.81
11345;BME280;5727;42.600;23.028;2023-03-31T09:04:47;93454.81;;;14.78;51.80
11345;BME280;5727;42.600;23.028;2023-03-31T09:07:21;93462.72;;;15.08;51.26
11345;BME280;5727;42.600;23.028;2023-03-31T09:09:54;93443.94;;;15.13;50.25
11345;BME280;5727;42.600;23.028;2023-03-31T09:12:31;93443.59;;;15.18;49.73
11345;BME280;5727;42.600;23.028;2023-03-31T09:15:07;93448.44;;;15.12;48.98
11345;BME280;5727;42.600;23.028;2023-03-31T09:17:39;93449.28;;;15.20;48.36
11345;BME280;5727;42.600;23.028;2023-03-31T09:20:12;93446.06;;;15.33;48.73
11345;BME280;5727;42.600;23.028;2023-03-31T09:22:42;93445.88;;;15.49;48.48
11345;BME280;5727;42.600;23.028;2023-03-31T09:25:13;93440.03;;;15.33;49.40
11345;BME280;5727;42.600;23.028;2023-03-31T09:27:42;93453.75;;;15.45;48.45
11345;BME280;5727;42.600;23.028;2023-03-31T09:30:15;93440.19;;;15.47;48.61
11345;BME280;5727;42.600;23.028;2023-03-31T09:32:44;93439.81;;;15.48;48.56
11345;BME280;5727;42.600;23.028;2023-03-31T09:35:17;93448.13;;;15.47;49.21
11345;BME280;5727;42.600;23.028;2023-03-31T09:37:46;93452.34;;;15.55;48.55
11345;BME280;5727;42.600;23.028;2023-03-31T09:40:16;93441.97;;;15.39;49.19
11345;BME280;5727;42.600;23.028;2023-03-31T09:42:44;93436.84;;;15.50;50.09
11345;BME280;5727;42.600;23.028;2023-03-31T09:45:18;93436.47;;;15.88;49.74
11345;BME280;5727;42.600;23.028;2023-03-31T09:47:50;93420.13;;;16.23;48.83
11345;BME280;5727;42.600;23.028;2023-03-31T09:50:19;93427.69;;;16.24;47.42
11345;BME280;5727;42.600;23.028;2023-03-31T09:52:50;93430.97;;;16.11;47.90
11345;BME280;5727;42.600;23.028;2023-03-31T09:55:20;93422.03;;;16.26;48.16
11345;BME280;5727;42.600;23.028;2023-03-31T09:57:47;93404.44;;;16.47;48.89
11345;BME280;5727;42.600;23.028;2023-03-31T10:00:18;93412.94;;;16.78;48.43
11345;BME280;5727;42.600;23.028;2023-03-31T10:02:49;93410.78;;;16.36;47.74
11345;BME280;5727;42.600;23.028;2023-03-31T10:05:28;93407.44;;;16.46;47.70
11345;BME280;5727;42.600;23.028;2023-03-31T10:08:16;93399.25;;;16.62;47.40
11345;BME280;5727;42.600;23.028;2023-03-31T10:10:47;93403.72;;;16.54;46.84
11345;BME280;5727;42.600;23.028;2023-03-31T10:13:16;93404.28;;;16.26;47.36
11345;BME280;5727;42.600;23.028;2023-03-31T10:15:46;93406.53;;;16.21;47.69
11345;BME280;5727;42.600;23.028;2023-03-31T10:18:13;93403.00;;;16.10;48.13
11345;BME280;5727;42.600;23.028;2023-03-31T10:20:44;93388.53;;;16.40;46.97
11345;BME280;5727;42.600;23.028;2023-03-31T10:23:16;93387.59;;;16.15;47.14
11345;BME280;5727;42.600;23.028;2023-03-31T10:25:44;93398.22;;;16.26;47.44
11345;BME280;5727;42.600;23.028;2023-03-31T10:28:15;93380.66;;;16.51;45.83
11345;BME280;5727;42.600;23.028;2023-03-31T10:30:48;93372.19;;;16.96;46.18
11345;BME280;5727;42.600;23.028;2023-03-31T10:33:17;93363.97;;;17.22;45.83
11345;BME280;5727;42.600;23.028;2023-03-31T10:35:46;93363.25;;;17.43;45.06
11345;BME280;5727;42.600;23.028;2023-03-31T10:38:23;93357.97;;;17.50;44.51
11345;BME280;5727;42.600;23.028;2023-03-31T10:40:53;93356.38;;;17.17;43.98
11345;BME280;5727;42.600;23.028;2023-03-31T10:43:25;93344.31;;;17.41;44.44
11345;BME280;5727;42.600;23.028;2023-03-31T10:45:55;93348.16;;;17.75;44.07
11345;BME280;5727;42.600;23.028;2023-03-31T10:48:25;93350.81;;;17.96;43.00
11345;BME280;5727;42.600;23.028;2023-03-31T10:50:52;93343.59;;;18.21;42.27
11345;BME280;5727;42.600;23.028;2023-03-31T10:53:21;93347.41;;;18.06;40.54
11345;BME280;5727;42.600;23.028;2023-03-31T10:55:59;93340.59;;;18.09;40.64
11345;BME280;5727;42.600;23.028;2023-03-31T10:58:38;93333.00;;;17.51;41.23
11345;BME280;5727;42.600;23.028;2023-03-31T11:01:23;93338.97;;;17.20;42.74
11345;BME280;5727;42.600;23.028;2023-03-31T11:04:07;93341.94;;;16.97;42.48
11345;BME280;5727;42.600;23.028;2023-03-31T11:06:51;93335.88;;;16.90;42.81
11345;BME280;5727;42.600;23.028;2023-03-31T11:09:33;93338.53;;;16.93;42.41
11345;BME280;5727;42.600;23.028;2023-03-31T11:12:08;93328.72;;;17.08;42.15
11345;BME280;5727;42.600;23.028;2023-03-31T11:14:47;93329.16;;;17.17;41.75
11345;BME280;5727;42.600;23.028;2023-03-31T11:17:28;93314.03;;;17.24;41.30
11345;BME280;5727;42.600;23.028;2023-03-31T11:20:04;93312.59;;;17.48;41.75
11345;BME280;5727;42.600;23.028;2023-03-31T11:22:43;93299.69;;;17.92;40.55
11345;BME280;5727;42.600;23.028;2023-03-31T11:25:22;93295.88;;;18.21;39.54
11345;BME280;5727;42.600;23.028;2023-03-31T11:28:12;93295.03;;;18.56;38.54
11345;BME280;5727;42.600;23.028;2023-03-31T11:30:49;93291.81;;;18.96;38.35
11345;BME280;5727;42.600;23.028;2023-03-31T11:33:31;93282.22;;;19.20;37.80
11345;BME280;5727;42.600;23.028;2023-03-31T11:36:09;93275.69;;;19.32;38.07
11345;BME280;5727;42.600;23.028;2023-03-31T11:38:57;93274.13;;;19.41;36.47
11345;BME280;5727;42.600;23.028;2023-03-31T11:41:32;93264.06;;;19.66;36.13
11345;BME280;5727;42.600;23.028;2023-03-31T11:44:01;93267.47;;;19.12;36.53
11345;BME280;5727;42.600;23.028;2023-03-31T11:46:35;93253.94;;;18.89;37.47
11345;BME280;5727;42.600;23.028;2023-03-31T11:49:10;93255.66;;;19.20;36.94
11345;BME280;5727;42.600;23.028;2023-03-31T11:51:45;93244.72;;;19.66;37.37
11345;BME280;5727;42.600;23.028;2023-03-31T11:54:17;93239.34;;;20.10;36.89
11345;BME280;5727;42.600;23.028;2023-03-31T11:56:45;93234.00;;;20.14;35.04
11345;BME280;5727;42.600;23.028;2023-03-31T11:59:15;93229.56;;;20.00;35.13
11345;BME280;5727;42.600;23.028;2023-03-31T12:01:47;93228.09;;;20.33;35.36
11345;BME280;5727;42.600;23.028;2023-03-31T12:04:24;93221.25;;;20.65;33.89
11345;BME280;5727;42.600;23.028;2023-03-31T12:06:58;93229.09;;;21.06;32.83
11345;BME280;5727;42.600;23.028;2023-03-31T12:09:31;93231.50;;;20.97;33.01
11345;BME280;5727;42.600;23.028;2023-03-31T12:12:02;93225.69;;;20.75;33.74
11345;BME280;5727;42.600;23.028;2023-03-31T12:14:33;93219.91;;;22.85;31.80
11345;BME280;5727;42.600;23.028;2023-03-31T12:17:08;93215.38;;;23.18;30.79
11345;BME280;5727;42.600;23.028;2023-03-31T12:19:43;93206.38;;;22.76;31.21
11345;BME280;5727;42.600;23.028;2023-03-31T12:22:15;93208.53;;;22.03;32.11
11345;BME280;5727;42.600;23.028;2023-03-31T12:24:43;93214.72;;;22.39;31.57
11345;BME280;5727;42.600;23.028;2023-03-31T12:27:13;93212.53;;;22.34;31.13
11345;BME280;5727;42.600;23.028;2023-03-31T12:29:45;93211.00;;;21.70;32.57
11345;BME280;5727;42.600;23.028;2023-03-31T12:32:16;93218.16;;;21.73;32.40
11345;BME280;5727;42.600;23.028;2023-03-31T12:34:49;93199.78;;;21.56;31.95
11345;BME280;5727;42.600;23.028;2023-03-31T12:37:34;93194.41;;;21.36;31.87
11345;BME280;5727;42.600;23.028;2023-03-31T12:40:17;93183.91;;;22.54;31.20
11345;BME280;5727;42.600;23.028;2023-03-31T12:43:00;93178.13;;;23.11;30.30
11345;BME280;5727;42.600;23.028;2023-03-31T12:45:35;93173.84;;;22.61;30.67
11345;BME280;5727;42.600;23.028;2023-03-31T12:48:18;93164.78;;;22.20;31.12
11345;BME280;5727;42.600;23.028;2023-03-31T12:51:04;93158.06;;;22.12;31.38
11345;BME280;5727;42.600;23.028;2023-03-31T12:53:42;93159.00;;;22.41;30.50
11345;BME280;5727;42.600;23.028;2023-03-31T12:56:15;93155.63;;;20.82;31.34
11345;BME280;5727;42.600;23.028;2023-03-31T12:59:17;93152.88;;;20.62;32.18
11345;BME280;5727;42.600;23.028;2023-03-31T13:02:10;93145.13;;;20.45;32.25
11345;BME280;5727;42.600;23.028;2023-03-31T13:04:43;93139.59;;;20.32;33.13
11345;BME280;5727;42.600;23.028;2023-03-31T13:07:36;93123.66;;;20.29;32.75
11345;BME280;5727;42.600;23.028;2023-03-31T13:10:27;93120.03;;;21.22;31.51
11345;BME280;5727;42.600;23.028;2023-03-31T13:13:02;93126.41;;;21.05;31.53
11345;BME280;5727;42.600;23.028;2023-03-31T13:15:30;93103.53;;;20.54;32.01
11345;BME280;5727;42.600;23.028;2023-03-31T13:17:58;93108.09;;;20.54;32.87
11345;BME280;5727;42.600;23.028;2023-03-31T13:20:30;93094.59;;;20.11;33.45
11345;BME280;5727;42.600;23.028;2023-03-31T13:23:04;93087.38;;;20.12;33.61
11345;BME280;5727;42.600;23.028;2023-03-31T13:25:47;93084.06;;;19.70;34.13
11345;BME280;5727;42.600;23.028;2023-03-31T13:28:26;93079.53;;;19.67;34.69
11345;BME280;5727;42.600;23.028;2023-03-31T13:30:55;93078.28;;;19.45;34.37
11345;BME280;5727;42.600;23.028;2023-03-31T13:33:29;93056.97;;;20.13;33.91